Time;durP1;ratioP1;P1;durP2;ratioP2;P2;SDS_P1;SDS_P2;PMS_P1;PMS_P2;Temp;Humidity;BMP_temperature;BMP_pressure;BME280_temperature;BME280_humidity;BME280_pressure;Samples;Min_cycle;Max_cycle;Signal;HPM_P1;HPM_P2
2022/06/05 00:02:07;;;;;;;6.63;4.43;;;12.80;99.90;;;;;;4869258;29;20052;-87
2022/06/05 00:04:59;;;;;;;6.47;5.35;;;12.90;99.90;;;;;;4883571;29;20101;-87
2022/06/05 00:07:51;;;;;;;9.68;5.75;;;12.80;99.90;;;;;;4867935;29;20052;-87
2022/06/05 00:10:31;;;;;;;7.53;4.22;;;12.80;99.90;;;;;;4882851;29;20123;-87
2022/06/05 00:13:12;;;;;;;7.40;5.95;;;12.80;99.90;;;;;;4882931;29;20052;-87
2022/06/05 00:15:37;;;;;;;5.45;4.07;;;12.80;99.90;;;;;;4867663;29;20064;-86
2022/06/05 00:18:04;;;;;;;7.17;4.30;;;12.70;99.90;;;;;;4868460;29;20057;-86
2022/06/05 00:20:31;;;;;;;;;;;12.70;99.90;;;;;;4872384;29;20049;-86
2022/06/05 00:22:58;;;;;;;6.03;3.58;;;12.70;99.90;;;;;;4857705;29;19976;-86
2022/06/05 00:25:37;;;;;;;7.22;4.75;;;12.70;99.90;;;;;;4881459;29;20059;-87
2022/06/05 00:28:08;;;;;;;10.13;4.10;;;12.60;99.90;;;;;;4862569;29;20052;-87
2022/06/05 00:30:56;;;;;;;9.48;5.65;;;12.60;99.90;;;;;;4883003;29;20076;-86
2022/06/05 00:33:35;;;;;;;7.50;4.00;;;12.60;99.90;;;;;;4878387;29;20045;-87
2022/06/05 00:36:41;;;;;;;4.93;3.85;;;12.60;99.90;;;;;;4867820;29;20060;-87
2022/06/05 00:39:32;;;;;;;7.97;3.60;;;12.60;99.90;;;;;;4883085;29;20055;-87
2022/06/05 00:42:00;;;;;;;8.65;4.18;;;12.50;99.90;;;;;;4882098;29;21325;-86
2022/06/05 00:44:41;;;;;;;8.77;4.45;;;12.50;99.90;;;;;;4882251;29;20049;-87
2022/06/05 00:47:11;;;;;;;4.55;3.75;;;12.50;99.90;;;;;;4883128;29;20139;-87
2022/06/05 00:49:44;;;;;;;6.88;4.93;;;12.40;99.90;;;;;;4879840;29;20765;-87
2022/06/05 00:52:11;;;;;;;7.18;4.47;;;12.40;99.90;;;;;;4878418;29;20132;-87
2022/06/05 00:54:37;;;;;;;5.82;4.25;;;12.40;99.90;;;;;;4881388;29;20108;-87
2022/06/05 00:57:07;;;;;;;6.10;2.97;;;12.40;99.90;;;;;;4849513;29;20400;-86
2022/06/05 00:59:33;;;;;;;5.05;3.85;;;12.40;99.90;;;;;;4879185;29;20087;-87
2022/06/05 01:01:59;;;;;;;9.97;3.97;;;12.40;99.90;;;;;;4859544;29;20935;-87
2022/06/05 01:04:26;;;;;;;4.83;3.60;;;12.40;99.90;;;;;;4863499;29;20804;-87
2022/06/05 01:06:52;;;;;;;;;;;12.30;99.90;;;;;;4879621;29;20104;-86
2022/06/05 01:09:18;;;;;;;7.38;3.92;;;12.30;99.90;;;;;;4882343;29;19966;-87
2022/06/05 01:12:04;;;;;;;5.50;3.50;;;12.30;99.90;;;;;;4851268;29;20048;-87
2022/06/05 01:14:51;;;;;;;6.28;3.33;;;12.40;99.90;;;;;;4869645;29;20068;-87
2022/06/05 01:17:29;;;;;;;8.43;3.45;;;12.30;99.90;;;;;;4881711;29;20560;-87
2022/06/05 01:20:01;;;;;;;7.18;3.92;;;12.40;99.90;;;;;;4867105;29;20052;-87
2022/06/05 01:22:34;;;;;;;8.20;3.25;;;12.40;99.90;;;;;;4879152;29;20453;-87
2022/06/05 01:25:34;;;;;;;6.03;3.95;;;12.40;99.90;;;;;;4866538;29;20056;-86
2022/06/05 01:28:07;;;;;;;5.63;4.47;;;12.40;99.90;;;;;;4843650;29;20065;-87
2022/06/05 01:30:39;;;;;;;7.15;3.80;;;12.40;99.90;;;;;;4878484;29;20460;-86
2022/06/05 01:33:17;;;;;;;5.30;3.42;;;12.40;99.90;;;;;;4880262;29;20492;-87
2022/06/05 01:36:04;;;;;;;7.68;4.97;;;12.40;99.90;;;;;;4881088;29;20059;-86
2022/06/05 01:39:01;;;;;;;7.35;3.65;;;12.40;99.90;;;;;;4880705;29;20063;-86
2022/06/05 01:41:53;;;;;;;7.75;4.28;;;12.40;99.90;;;;;;4881093;29;20057;-87
2022/06/05 01:44:34;;;;;;;4.43;3.25;;;12.40;99.90;;;;;;4880750;29;20139;-86
2022/06/05 01:47:05;;;;;;;5.32;3.58;;;12.30;99.90;;;;;;4880698;29;20049;-86
2022/06/05 01:49:51;;;;;;;8.35;4.35;;;12.30;99.90;;;;;;4880036;29;20052;-86
2022/06/05 01:52:24;;;;;;;6.97;4.30;;;12.40;99.90;;;;;;4881288;29;20041;-86
2022/06/05 01:55:10;;;;;;;9.15;4.70;;;12.30;99.90;;;;;;4881001;29;20136;-86
2022/06/05 01:57:36;;;;;;;9.43;3.80;;;12.30;99.90;;;;;;4851021;29;20048;-86
2022/06/05 02:00:17;;;;;;;7.13;4.87;;;12.30;99.90;;;;;;4850974;29;20139;-86
2022/06/05 02:02:55;;;;;;;6.68;4.70;;;12.30;99.90;;;;;;4865656;29;20056;-86
2022/06/05 02:05:27;;;;;;;7.50;4.32;;;12.30;99.90;;;;;;4880509;29;20049;-86
2022/06/05 02:08:01;;;;;;;6.85;3.97;;;12.30;99.90;;;;;;4881507;29;20052;-86
2022/06/05 02:10:38;;;;;;;5.88;3.78;;;12.30;99.90;;;;;;4881464;29;20071;-86
2022/06/05 02:13:04;;;;;;;6.88;4.47;;;12.20;99.90;;;;;;4881300;29;20146;-86
2022/06/05 02:15:30;;;;;;;6.07;4.18;;;12.20;99.90;;;;;;4879253;29;20056;-86
2022/06/05 02:17:57;;;;;;;7.47;4.67;;;12.20;99.90;;;;;;4881077;29;20124;-87
2022/06/05 02:20:23;;;;;;;6.88;4.47;;;12.20;99.90;;;;;;4878560;29;20785;-86
2022/06/05 02:22:50;;;;;;;7.38;3.80;;;12.20;99.90;;;;;;4880724;29;20409;-86
2022/06/05 02:25:20;;;;;;;6.72;4.90;;;12.10;99.90;;;;;;4879542;29;20057;-86
2022/06/05 02:27:46;;;;;;;6.80;4.22;;;12.20;99.90;;;;;;4896207;29;20048;-86
2022/06/05 02:30:15;;;;;;;5.37;3.77;;;12.20;99.90;;;;;;4881091;29;20052;-86
2022/06/05 02:32:59;;;;;;;6.95;4.18;;;12.20;99.90;;;;;;4879095;29;20079;-86
2022/06/05 02:35:33;;;;;;;11.98;4.85;;;12.20;99.90;;;;;;4879665;29;20135;-86
2022/06/05 02:38:23;;;;;;;7.95;4.50;;;12.20;99.90;;;;;;4881439;29;20049;-86
2022/06/05 02:40:52;;;;;;;6.85;4.47;;;12.10;99.90;;;;;;4880471;29;20820;-86
2022/06/05 02:43:44;;;;;;;7.28;4.57;;;12.10;99.90;;;;;;4865069;29;20104;-86
2022/06/05 02:46:28;;;;;;;7.30;4.50;;;12.00;99.90;;;;;;4861260;29;20067;-86
2022/06/05 02:49:12;;;;;;;5.65;4.60;;;12.10;99.90;;;;;;4880424;29;20112;-86
2022/06/05 02:51:41;;;;;;;10.75;5.50;;;12.10;99.90;;;;;;4878811;29;20131;-87
2022/06/05 02:54:07;;;;;;;5.00;3.95;;;12.10;99.90;;;;;;4880860;29;20055;-86
2022/06/05 02:56:33;;;;;;;6.27;4.87;;;12.00;99.90;;;;;;4849104;29;20131;-87
2022/06/05 02:59:02;;;;;;;8.70;6.18;;;12.10;99.90;;;;;;4880892;29;20049;-86
2022/06/05 03:04:12;;;;;;;7.70;5.63;;;12.00;99.90;;;;;;4880469;29;20058;-86
2022/06/05 03:06:40;;;;;;;8.30;5.57;;;12.10;99.90;;;;;;4874190;29;20044;-87
2022/06/05 03:09:07;;;;;;;10.20;5.78;;;12.00;99.90;;;;;;4846856;29;20156;-86
2022/06/05 03:11:33;;;;;;;14.15;5.68;;;12.10;99.90;;;;;;4862384;29;20052;-86
2022/06/05 03:13:59;;;;;;;7.80;5.43;;;12.00;99.90;;;;;;4861515;29;20088;-86
2022/06/05 03:16:26;;;;;;;13.55;7.13;;;12.00;99.90;;;;;;4851164;29;20053;-86
2022/06/05 03:18:52;;;;;;;8.68;6.15;;;12.00;99.90;;;;;;4830143;29;20049;-86
2022/06/05 03:21:18;;;;;;;9.23;5.20;;;12.10;99.90;;;;;;4876627;29;20071;-86
2022/06/05 03:23:44;;;;;;;9.57;5.30;;;12.00;99.90;;;;;;4876965;29;20057;-87
2022/06/05 03:26:10;;;;;;;9.07;4.97;;;12.10;99.90;;;;;;4871588;29;20045;-86
2022/06/05 03:28:37;;;;;;;8.35;5.30;;;12.00;99.90;;;;;;4877140;29;20496;-88
2022/06/05 03:31:08;;;;;;;10.15;5.10;;;12.00;99.90;;;;;;4877235;29;20049;-87
2022/06/05 03:33:34;;;;;;;8.30;4.82;;;12.00;99.90;;;;;;4877222;29;20049;-87
2022/06/05 03:36:00;;;;;;;;;;;12.00;99.90;;;;;;4879988;29;20053;-86
2022/06/05 03:38:26;;;;;;;6.97;4.40;;;12.00;99.90;;;;;;4864702;29;19946;-86
2022/06/05 03:40:52;;;;;;;9.27;6.03;;;12.10;99.90;;;;;;4862589;29;20053;-86
2022/06/05 03:43:17;;;;;;;9.10;5.87;;;12.00;99.90;;;;;;4865608;29;20080;-86
2022/06/05 03:45:43;;;;;;;8.23;5.13;;;12.10;99.90;;;;;;4864389;29;20041;-87
2022/06/05 03:48:09;;;;;;;11.38;5.95;;;12.10;99.90;;;;;;4861579;29;20052;-86
2022/06/05 03:50:39;;;;;;;9.18;4.95;;;12.00;99.90;;;;;;4847609;29;20045;-86
2022/06/05 03:53:05;;;;;;;9.07;5.78;;;12.10;99.90;;;;;;4876928;29;20080;-86
2022/06/05 03:55:31;;;;;;;10.88;5.28;;;12.10;99.90;;;;;;4880237;29;20453;-86
2022/06/05 03:57:57;;;;;;;11.55;5.80;;;12.10;99.90;;;;;;4861828;29;20057;-86
2022/06/05 04:00:23;;;;;;;9.50;5.27;;;12.20;99.90;;;;;;4862588;29;20516;-86
2022/06/05 04:02:49;;;;;;;7.90;5.43;;;12.20;99.90;;;;;;4863142;29;20057;-86
2022/06/05 04:05:18;;;;;;;8.68;4.72;;;12.20;99.90;;;;;;4880836;29;20106;-86
2022/06/05 04:07:44;;;;;;;7.18;4.80;;;12.20;99.90;;;;;;4879227;29;20048;-87
2022/06/05 04:10:15;;;;;;;10.37;5.43;;;12.60;99.90;;;;;;4880110;29;20044;-86
2022/06/05 04:12:41;;;;;;;8.25;5.40;;;12.20;99.90;;;;;;4880580;29;20136;-86
2022/06/05 04:15:07;;;;;;;10.45;5.13;;;12.20;99.90;;;;;;4881165;29;20041;-86
2022/06/05 04:17:35;;;;;;;9.18;5.38;;;12.30;99.90;;;;;;4867731;29;20064;-86
2022/06/05 04:20:01;;;;;;;7.28;5.53;;;12.30;99.90;;;;;;4882755;29;20052;-86
2022/06/05 04:22:26;;;;;;;8.20;5.03;;;12.30;99.90;;;;;;4883711;29;20049;-86
2022/06/05 04:24:52;;;;;;;7.27;4.90;;;12.30;99.90;;;;;;4862078;29;20059;-86
2022/06/05 04:27:18;;;;;;;7.67;4.60;;;12.30;99.90;;;;;;4881728;29;20079;-86
2022/06/05 04:29:44;;;;;;;7.45;5.15;;;12.40;99.90;;;;;;4883438;29;20052;-86
2022/06/05 04:32:09;;;;;;;7.97;5.73;;;12.40;99.90;;;;;;4883042;29;20056;-86
2022/06/05 04:34:35;;;;;;;16.70;5.97;;;12.40;99.90;;;;;;4848695;29;20127;-86
2022/06/05 04:37:01;;;;;;;10.00;5.67;;;12.40;99.90;;;;;;4864831;29;20056;-85
2022/06/05 04:39:27;;;;;;;7.38;5.10;;;12.50;99.90;;;;;;4860710;29;20132;-86
2022/06/05 04:41:53;;;;;;;9.57;5.13;;;12.50;99.90;;;;;;4866548;29;20140;-86
2022/06/05 04:44:18;;;;;;;10.93;6.07;;;12.60;99.90;;;;;;4867252;29;20484;-86
2022/06/05 04:46:45;;;;;;;7.73;5.53;;;12.60;99.90;;;;;;4869588;29;20812;-86
2022/06/05 04:49:11;;;;;;;10.05;5.30;;;12.70;99.90;;;;;;4850845;29;20447;-86
2022/06/05 04:51:37;;;;;;;7.53;5.32;;;12.70;99.90;;;;;;4851711;29;20045;-85
2022/06/05 04:54:05;;;;;;;7.63;4.90;;;12.80;99.90;;;;;;4848492;29;20185;-86
2022/06/05 04:56:32;;;;;;;5.85;4.15;;;12.80;99.90;;;;;;4875711;29;20127;-86
2022/06/05 04:58:59;;;;;;;8.15;5.25;;;12.80;99.90;;;;;;4881509;29;20496;-86
2022/06/05 05:01:32;;;;;;;10.77;5.80;;;12.90;99.90;;;;;;4883048;29;20060;-85
2022/06/05 05:04:01;;;;;;;8.45;5.45;;;12.90;99.90;;;;;;4896820;29;20534;-86
2022/06/05 05:06:29;;;;;;;7.40;5.57;;;12.90;99.90;;;;;;4881344;29;20048;-86
2022/06/05 05:08:54;;;;;;;7.80;4.97;;;13.00;99.90;;;;;;4866995;29;20052;-86
2022/06/05 05:11:21;;;;;;;8.50;5.67;;;13.00;99.90;;;;;;4882005;29;20377;-86
2022/06/05 05:13:48;;;;;;;9.75;5.45;;;13.10;99.90;;;;;;4882313;29;20127;-86
2022/06/05 05:16:13;;;;;;;10.60;5.13;;;13.10;99.90;;;;;;4864880;29;20064;-86
2022/06/05 05:18:40;;;;;;;8.80;4.95;;;13.20;99.90;;;;;;4882522;29;20052;-86
2022/06/05 05:21:08;;;;;;;9.38;5.50;;;13.40;99.90;;;;;;4864600;29;20096;-86
2022/06/05 05:23:34;;;;;;;7.57;5.85;;;13.30;99.90;;;;;;4848628;29;20089;-86
2022/06/05 05:26:16;;;;;;;6.78;5.50;;;13.30;99.90;;;;;;4881750;29;20046;-87
2022/06/05 05:28:43;;;;;;;10.98;5.70;;;13.30;99.90;;;;;;4865780;29;20090;-86
2022/06/05 05:31:10;;;;;;;;;;;13.40;99.90;;;;;;4866543;29;20056;-86
2022/06/05 05:33:36;;;;;;;7.28;4.50;;;13.50;99.90;;;;;;4866582;29;19978;-86
2022/06/05 05:36:02;;;;;;;9.00;4.50;;;13.50;99.90;;;;;;4881980;29;20044;-86
2022/06/05 05:38:28;;;;;;;6.28;4.95;;;13.50;99.90;;;;;;4879198;29;20139;-86
2022/06/05 05:43:38;;;;;;;7.13;5.25;;;13.60;99.90;;;;;;4858475;29;20139;-86
2022/06/05 05:46:11;;;;;;;8.27;4.80;;;13.60;99.90;;;;;;4865837;29;20110;-86
2022/06/05 05:48:38;;;;;;;10.55;5.60;;;13.70;99.90;;;;;;4879243;29;20071;-86
2022/06/05 05:51:13;;;;;;;9.38;5.47;;;13.70;99.90;;;;;;4864612;29;20049;-86
2022/06/05 05:53:40;;;;;;;7.70;5.68;;;13.70;99.90;;;;;;4881755;29;20053;-86
2022/06/05 05:56:10;;;;;;;8.00;4.97;;;13.70;99.90;;;;;;4880550;29;20045;-86
2022/06/05 05:58:37;;;;;;;8.68;5.90;;;13.80;99.90;;;;;;4879743;29;20063;-86
2022/06/05 06:01:05;;;;;;;7.53;5.47;;;13.80;99.90;;;;;;4865065;29;20060;-86
2022/06/05 06:03:32;;;;;;;11.80;6.05;;;13.90;99.90;;;;;;4881812;29;20188;-86
2022/06/05 06:06:01;;;;;;;8.48;5.20;;;14.00;99.90;;;;;;4866160;29;20411;-87
2022/06/05 06:08:27;;;;;;;10.02;5.63;;;14.00;99.90;;;;;;4880618;29;20060;-87
2022/06/05 06:10:54;;;;;;;11.38;5.45;;;14.10;99.90;;;;;;4864910;29;20144;-86
2022/06/05 06:13:20;;;;;;;9.15;5.50;;;14.20;99.90;;;;;;4880814;29;20104;-86
2022/06/05 06:15:47;;;;;;;8.65;5.72;;;14.20;99.90;;;;;;4880546;29;20056;-86
2022/06/05 06:18:13;;;;;;;14.40;6.07;;;14.30;99.90;;;;;;4864293;29;20063;-86
2022/06/05 06:20:38;;;;;;;11.02;6.30;;;14.30;99.90;;;;;;4881304;29;20484;-86
2022/06/05 06:23:04;;;;;;;8.40;5.70;;;14.40;99.90;;;;;;4848715;29;20055;-86
2022/06/05 06:25:30;;;;;;;11.57;5.77;;;14.40;99.90;;;;;;4865272;29;20052;-86
2022/06/05 06:27:56;;;;;;;8.10;4.60;;;14.50;99.90;;;;;;4880244;29;20059;-86
2022/06/05 06:30:21;;;;;;;9.35;6.40;;;14.50;99.90;;;;;;4880844;29;20056;-86
2022/06/05 06:32:47;;;;;;;8.47;4.93;;;14.60;99.90;;;;;;4866031;29;20192;-85
2022/06/05 06:35:13;;;;;;;10.37;5.97;;;14.70;99.90;;;;;;4863592;29;20048;-87
2022/06/05 06:37:38;;;;;;;9.80;5.83;;;14.80;99.90;;;;;;4864614;29;20099;-86
2022/06/05 06:40:05;;;;;;;7.13;5.10;;;14.90;99.90;;;;;;4879073;29;20119;-86
2022/06/05 06:42:30;;;;;;;11.18;6.22;;;15.00;99.90;;;;;;4876867;29;20312;-86
2022/06/05 06:44:56;;;;;;;7.38;4.88;;;15.10;99.90;;;;;;4881092;29;20048;-85
2022/06/05 06:47:23;;;;;;;7.97;5.38;;;15.20;99.90;;;;;;4860069;29;20045;-85
2022/06/05 06:49:48;;;;;;;;;;;15.30;99.90;;;;;;4891470;29;20060;-86
2022/06/05 06:52:15;;;;;;;7.22;4.72;;;15.40;99.90;;;;;;4881255;29;19927;-86
2022/06/05 06:54:41;;;;;;;8.98;5.60;;;15.50;99.90;;;;;;4847201;29;20053;-85
2022/06/05 06:57:08;;;;;;;7.07;5.00;;;15.60;99.90;;;;;;4876860;29;20132;-88
2022/06/05 06:59:33;;;;;;;7.35;5.10;;;15.70;99.90;;;;;;4880858;29;20559;-85
2022/06/05 07:01:59;;;;;;;10.73;4.97;;;15.90;99.90;;;;;;4880658;29;20048;-85
2022/06/05 07:04:25;;;;;;;8.23;5.13;;;16.00;99.90;;;;;;4833179;29;20305;-86
2022/06/05 07:06:51;;;;;;;5.75;4.70;;;16.20;99.90;;;;;;4879779;29;20056;-86
2022/06/05 07:09:17;;;;;;;9.50;5.50;;;16.40;99.90;;;;;;4880558;29;20128;-86
2022/06/05 07:11:43;;;;;;;8.48;5.03;;;16.60;99.90;;;;;;4885196;29;20295;-85
2022/06/05 07:14:09;;;;;;;7.78;4.60;;;16.90;99.90;;;;;;4868164;29;20046;-91
2022/06/05 07:16:35;;;;;;;8.38;4.55;;;17.10;99.90;;;;;;4868218;29;20056;-85
2022/06/05 07:19:01;;;;;;;;;;;17.20;99.90;;;;;;4884757;29;20080;-86
2022/06/05 07:21:27;;;;;;;6.93;4.82;;;17.30;99.90;;;;;;4883899;29;19978;-87
2022/06/05 07:23:57;;;;;;;7.68;4.30;;;17.50;99.90;;;;;;4884769;29;20052;-85
2022/06/05 07:26:26;;;;;;;6.47;4.70;;;17.70;99.90;;;;;;4868299;29;20045;-87
2022/06/05 07:28:53;;;;;;;5.20;4.47;;;17.80;99.90;;;;;;4852386;29;20474;-86
2022/06/05 07:31:19;;;;;;;5.20;3.95;;;17.80;99.90;;;;;;4868484;29;20503;-89
2022/06/05 07:33:45;;;;;;;4.57;3.50;;;17.90;99.90;;;;;;4862870;29;20048;-87
2022/06/05 07:36:14;;;;;;;4.95;3.72;;;18.00;99.90;;;;;;4880483;29;20061;-89
2022/06/05 07:38:41;;;;;;;5.38;3.45;;;18.00;99.90;;;;;;4865930;29;20476;-86
2022/06/05 07:41:15;;;;;;;5.38;4.05;;;18.10;99.90;;;;;;4884606;29;20037;-90
2022/06/05 07:43:40;;;;;;;5.50;3.70;;;18.10;99.90;;;;;;4883999;29;20056;-88
2022/06/05 07:46:06;;;;;;;8.38;4.65;;;18.20;99.90;;;;;;4843730;29;20563;-88
2022/06/05 07:48:34;;;;;;;5.78;4.03;;;18.20;99.90;;;;;;4861685;29;20112;-87
2022/06/05 07:56:35;;;;;;;6.22;4.30;;;18.50;99.90;;;;;;4880599;29;20056;-87
2022/06/05 07:59:01;;;;;;;7.50;3.88;;;18.60;99.90;;;;;;4861988;29;20495;-87
2022/06/05 08:01:27;;;;;;;6.43;4.47;;;18.70;99.90;;;;;;4883224;29;20049;-87
2022/06/05 08:03:53;;;;;;;6.28;3.67;;;18.80;99.90;;;;;;4865769;29;20135;-89
2022/06/05 08:06:18;;;;;;;5.10;4.15;;;18.90;99.90;;;;;;4868108;29;20476;-89
2022/06/05 08:08:44;;;;;;;4.40;3.22;;;18.90;99.90;;;;;;4883403;29;20084;-88
2022/06/05 08:11:10;;;;;;;5.55;3.72;;;18.90;99.90;;;;;;4852780;29;20056;-87
2022/06/05 08:13:38;;;;;;;6.97;3.40;;;19.00;99.90;;;;;;4858549;29;20072;-89
2022/06/05 08:16:04;;;;;;;4.03;3.42;;;18.50;99.90;;;;;;4867650;29;20148;-87
2022/06/05 08:18:30;;;;;;;6.35;3.70;;;19.00;99.90;;;;;;4867575;29;20411;-86
2022/06/05 08:20:56;;;;;;;4.78;4.03;;;19.10;99.90;;;;;;4867124;29;20096;-87
2022/06/05 08:23:24;;;;;;;4.30;3.90;;;19.10;99.90;;;;;;4882251;29;20041;-86
2022/06/05 08:25:50;;;;;;;11.07;3.58;;;19.20;99.90;;;;;;4882212;29;20048;-85
2022/06/05 08:28:16;;;;;;;5.57;3.47;;;19.30;99.90;;;;;;4881913;29;20052;-85
2022/06/05 08:30:42;;;;;;;5.65;3.20;;;19.50;99.90;;;;;;4898074;29;20045;-86
2022/06/05 08:33:08;;;;;;;5.25;3.60;;;19.60;99.90;;;;;;4867491;29;20045;-86
2022/06/05 08:35:34;;;;;;;;;;;19.70;99.90;;;;;;4867520;29;20048;-86
2022/06/05 08:44:16;;;;;;;4.70;3.58;;;19.90;99.90;;;;;;4866352;29;20436;-88
2022/06/05 08:46:59;;;;;;;5.10;3.40;;;19.90;99.90;;;;;;4859702;29;20063;-89
2022/06/05 08:49:42;;;;;;;4.47;3.42;;;19.90;99.90;;;;;;4882177;29;20084;-87
2022/06/05 08:52:28;;;;;;;5.30;3.35;;;19.90;99.90;;;;;;4879678;29;20151;-87
2022/06/05 08:55:09;;;;;;;4.68;3.20;;;19.80;99.90;;;;;;4881273;29;20047;-86
2022/06/05 08:58:17;;;;;;;4.07;3.58;;;19.90;99.90;;;;;;4880908;29;20084;-86
2022/06/05 09:00:49;;;;;;;4.50;2.95;;;19.80;99.90;;;;;;4845630;29;20045;-87
2022/06/05 09:03:42;;;;;;;6.30;3.88;;;19.90;99.90;;;;;;4838670;29;20053;-87
2022/06/05 09:06:39;;;;;;;4.60;3.72;;;19.80;99.90;;;;;;4862682;29;20060;-86
2022/06/05 09:09:13;;;;;;;4.07;3.47;;;20.00;99.90;;;;;;4864335;29;20049;-86
2022/06/05 09:11:49;;;;;;;6.45;3.75;;;20.10;99.90;;;;;;4878991;29;20189;-84
2022/06/05 09:14:46;;;;;;;5.10;3.65;;;20.20;99.90;;;;;;4895126;29;20054;-84
2022/06/05 09:17:15;;;;;;;5.38;3.75;;;20.30;99.90;;;;;;4874865;29;20124;-87
2022/06/05 09:19:42;;;;;;;4.93;3.53;;;20.40;99.90;;;;;;4877646;29;20053;-85
2022/06/05 09:22:21;;;;;;;6.65;4.30;;;20.50;99.90;;;;;;4877551;29;20107;-90
2022/06/05 09:24:59;;;;;;;7.47;3.65;;;20.60;99.90;;;;;;4877649;29;20045;-86
2022/06/05 09:27:42;;;;;;;4.65;3.42;;;20.70;99.90;;;;;;4879346;29;20045;-87
2022/06/05 09:30:32;;;;;;;3.90;3.10;;;20.80;99.90;;;;;;4879720;29;20084;-87
2022/06/05 09:33:05;;;;;;;6.13;3.60;;;20.80;99.90;;;;;;4878541;29;20040;-87
2022/06/05 09:35:43;;;;;;;7.10;3.00;;;21.00;99.90;;;;;;4878857;29;20078;-89
2022/06/05 09:38:22;;;;;;;6.15;3.65;;;21.10;99.90;;;;;;4858549;29;20048;-88
2022/06/05 09:41:11;;;;;;;4.90;3.67;;;21.30;99.90;;;;;;4878307;29;20572;-87
2022/06/05 09:44:08;;;;;;;5.40;3.40;;;21.30;99.90;;;;;;4893644;29;20128;-87
2022/06/05 09:46:34;;;;;;;5.53;3.80;;;21.40;99.90;;;;;;4877938;29;20104;-87
2022/06/05 09:49:08;;;;;;;4.15;3.20;;;21.50;99.90;;;;;;4853615;29;20049;-92
2022/06/05 09:51:36;;;;;;;3.33;3.03;;;21.50;99.90;;;;;;4905255;29;20053;-93
2022/06/05 09:54:29;;;;;;;6.78;3.88;;;21.50;99.90;;;;;;4877872;29;20500;-91
2022/06/05 10:00:27;;;;;;;5.05;3.15;;;21.70;99.90;;;;;;4877102;29;20049;-91
2022/06/05 10:03:01;;;;;;;5.55;3.42;;;21.80;99.90;;;;;;4861912;29;20060;-88
2022/06/05 10:05:36;;;;;;;3.30;3.00;;;21.80;99.90;;;;;;4876881;29;20053;-88
2022/06/05 10:08:16;;;;;;;4.22;3.33;;;21.90;99.90;;;;;;4879071;29;20049;-87
2022/06/05 10:10:45;;;;;;;6.07;3.83;;;22.00;99.90;;;;;;4877086;29;20052;-87
2022/06/05 10:13:37;;;;;;;5.78;3.67;;;22.00;99.90;;;;;;4876906;29;20112;-87
2022/06/05 10:16:10;;;;;;;4.72;3.70;;;22.10;99.90;;;;;;4859772;29;20060;-90
2022/06/05 10:18:47;;;;;;;8.60;4.00;;;22.20;99.90;;;;;;4877103;29;20500;-89
2022/06/05 10:21:14;;;;;;;7.95;4.38;;;22.20;99.90;;;;;;4861032;29;20128;-88
2022/06/05 10:24:12;;;;;;;5.38;3.30;;;22.20;99.90;;;;;;4877364;29;20157;-88
2022/06/05 10:26:42;;;;;;;3.90;2.90;;;22.20;99.90;;;;;;4840426;29;20112;-87
2022/06/05 10:29:17;;;;;;;4.55;3.38;;;22.20;99.90;;;;;;4876535;29;20108;-87
2022/06/05 10:31:52;;;;;;;3.00;2.70;;;22.20;99.90;;;;;;4876968;29;20052;-89
2022/06/05 10:34:40;;;;;;;3.75;3.00;;;22.20;99.90;;;;;;4859775;29;20045;-89
2022/06/05 10:37:33;;;;;;;3.78;3.22;;;22.20;99.90;;;;;;4865702;29;20097;-88
2022/06/05 10:40:20;;;;;;;8.27;3.30;;;22.20;99.90;;;;;;4874343;29;20063;-87
2022/06/05 10:43:11;;;;;;;4.07;3.58;;;22.20;99.90;;;;;;4877841;29;20052;-88
2022/06/05 10:45:39;;;;;;;4.07;3.58;;;22.20;99.90;;;;;;4877944;29;20506;-91
2022/06/05 10:48:26;;;;;;;3.63;3.33;;;22.10;99.90;;;;;;4877586;29;20053;-88
2022/06/05 10:50:58;;;;;;;5.88;3.35;;;22.10;99.90;;;;;;4852268;29;20053;-89
2022/06/05 10:53:40;;;;;;;5.00;3.38;;;22.10;99.90;;;;;;4875491;29;20041;-87
2022/06/05 10:56:15;;;;;;;3.65;2.92;;;22.20;99.90;;;;;;4877828;29;20123;-87
2022/06/05 10:58:54;;;;;;;4.85;2.85;;;22.20;99.90;;;;;;4876928;29;20053;-90
2022/06/05 11:01:57;;;;;;;3.80;3.33;;;22.30;99.90;;;;;;4876742;29;21736;-87
2022/06/05 11:04:40;;;;;;;3.75;3.10;;;22.40;99.90;;;;;;4870026;29;20160;-87
2022/06/05 11:07:30;;;;;;;3.75;3.28;;;22.50;99.90;;;;;;4877250;29;20091;-87
2022/06/05 11:13:39;;;;;;;4.18;3.10;;;22.50;99.90;;;;;;4876712;29;20410;-88
2022/06/05 11:16:30;;;;;;;4.32;3.55;;;22.60;99.90;;;;;;4887527;29;20068;-88
2022/06/05 11:19:34;;;;;;;3.83;3.53;;;22.60;99.90;;;;;;4855225;29;20096;-88
2022/06/05 11:22:04;;;;;;;3.58;3.05;;;22.70;99.90;;;;;;4875024;29;20048;-88
2022/06/05 11:24:34;;;;;;;3.63;3.10;;;22.70;99.90;;;;;;4883438;29;20065;-88
2022/06/05 11:27:07;;;;;;;5.65;3.50;;;22.80;99.90;;;;;;4874614;29;20113;-87
2022/06/05 11:29:52;;;;;;;5.30;3.70;;;22.80;99.90;;;;;;4865728;29;20151;-88
2022/06/05 11:32:41;;;;;;;4.35;3.45;;;22.80;99.90;;;;;;4876226;29;20053;-88
2022/06/05 11:35:19;;;;;;;3.63;3.10;;;22.70;99.90;;;;;;4843776;29;20058;-88
2022/06/05 11:38:22;;;;;;;5.35;3.78;;;22.70;99.90;;;;;;4875772;29;20132;-88
2022/06/05 11:40:48;;;;;;;4.82;3.60;;;22.70;99.90;;;;;;4886025;29;20149;-90
2022/06/05 11:43:26;;;;;;;5.28;4.00;;;22.70;99.90;;;;;;4869923;29;20093;-86
2022/06/05 11:45:53;;;;;;;3.75;2.65;;;22.70;99.90;;;;;;4870679;29;20057;-88
2022/06/05 11:48:33;;;;;;;6.20;3.35;;;22.70;99.90;;;;;;4892119;29;20132;-89
2022/06/05 11:51:05;;;;;;;5.70;3.72;;;22.70;99.90;;;;;;4890381;29;20503;-86
2022/06/05 11:53:47;;;;;;;3.50;3.20;;;22.80;99.90;;;;;;4886372;29;20065;-87
2022/06/05 11:56:12;;;;;;;5.63;3.03;;;22.80;99.90;;;;;;4861581;29;20091;-88
2022/06/05 11:58:49;;;;;;;3.83;3.50;;;22.80;99.90;;;;;;4852143;29;20076;-88
2022/06/05 12:01:20;;;;;;;3.58;3.03;;;22.80;99.90;;;;;;4869932;29;20056;-87
2022/06/05 12:04:14;;;;;;;4.57;3.40;;;22.90;99.90;;;;;;4879741;29;20389;-87
2022/06/05 12:06:58;;;;;;;4.72;3.63;;;22.80;99.90;;;;;;4877756;29;20041;-87
2022/06/05 12:09:27;;;;;;;3.40;3.10;;;22.80;99.90;;;;;;4878021;29;20049;-88
2022/06/05 12:11:59;;;;;;;4.57;4.10;;;22.80;99.90;;;;;;4878635;29;20056;-87
2022/06/05 12:14:29;;;;;;;4.35;3.28;;;22.80;99.90;;;;;;4863337;29;20116;-87
2022/06/05 12:17:26;;;;;;;7.15;3.85;;;22.80;99.90;;;;;;4879915;29;20057;-88
2022/06/05 12:20:07;;;;;;;4.35;3.85;;;22.80;99.90;;;;;;4880248;29;20052;-90
2022/06/05 12:22:43;;;;;;;7.90;3.90;;;22.80;99.90;;;;;;4880687;29;20056;-88
2022/06/05 12:25:12;;;;;;;;;;;22.80;99.90;;;;;;4880511;29;20060;-88
2022/06/05 12:27:57;;;;;;;4.32;3.28;;;22.80;99.90;;;;;;4894765;29;20022;-87
2022/06/05 12:30:31;;;;;;;5.15;4.10;;;22.70;99.90;;;;;;4880508;29;20052;-87
2022/06/05 12:33:01;;;;;;;4.18;3.10;;;22.70;99.90;;;;;;4864319;29;20465;-88
2022/06/05 12:35:35;;;;;;;4.95;3.40;;;22.70;99.90;;;;;;4880262;29;20049;-88
2022/06/05 12:38:19;;;;;;;5.05;4.55;;;22.50;99.90;;;;;;4864521;29;20065;-87
2022/06/05 12:40:54;;;;;;;4.57;3.70;;;22.50;99.90;;;;;;4864824;29;20053;-88
2022/06/05 12:43:27;;;;;;;4.80;3.90;;;22.60;99.90;;;;;;4880398;29;20470;-87
2022/06/05 12:45:59;;;;;;;7.45;3.97;;;22.60;99.90;;;;;;4864470;29;20056;-89
2022/06/05 12:48:29;;;;;;;6.95;4.10;;;22.50;99.90;;;;;;4880182;29;20092;-88
2022/06/05 12:51:02;;;;;;;4.88;3.80;;;22.50;99.90;;;;;;4878114;29;20157;-90
2022/06/05 12:53:51;;;;;;;6.07;4.25;;;22.50;99.90;;;;;;4880277;29;20501;-88
2022/06/05 12:56:42;;;;;;;4.97;3.40;;;22.50;99.90;;;;;;4879564;29;20052;-88
2022/06/05 12:59:21;;;;;;;7.93;4.13;;;22.50;99.90;;;;;;4879420;29;20140;-88
2022/06/05 13:01:58;;;;;;;4.18;3.78;;;22.50;99.90;;;;;;4880033;29;20386;-88
2022/06/05 13:04:39;;;;;;;4.95;4.38;;;22.60;99.90;;;;;;4879874;29;20064;-88
2022/06/05 13:07:17;;;;;;;4.93;3.72;;;22.60;99.90;;;;;;4878811;29;20061;-88
2022/06/05 13:09:55;;;;;;;4.07;3.35;;;22.60;99.90;;;;;;4879811;29;20556;-88
2022/06/05 13:12:40;;;;;;;5.78;3.30;;;22.70;99.90;;;;;;4879333;29;20056;-88
2022/06/05 13:15:34;;;;;;;3.80;3.00;;;22.70;99.90;;;;;;4880242;29;20081;-88
2022/06/05 13:18:22;;;;;;;8.85;3.70;;;23.30;99.90;;;;;;4867606;29;20510;-88
2022/06/05 13:21:13;;;;;;;7.32;3.50;;;22.90;99.90;;;;;;4867056;29;20041;-88
2022/06/05 13:23:42;;;;;;;6.20;3.20;;;22.90;99.90;;;;;;4867338;29;20084;-89
2022/06/05 13:26:26;;;;;;;3.47;3.17;;;23.00;99.90;;;;;;4866558;29;20131;-88
2022/06/05 13:29:13;;;;;;;3.75;3.35;;;23.10;99.90;;;;;;4866966;29;20510;-88
2022/06/05 13:31:47;;;;;;;3.42;3.13;;;23.10;99.90;;;;;;4866391;29;20594;-89
2022/06/05 13:34:25;;;;;;;4.45;3.15;;;23.20;99.90;;;;;;4881806;29;20052;-89
2022/06/05 13:37:12;;;;;;;3.50;3.20;;;23.20;99.90;;;;;;4866842;29;20060;-88
2022/06/05 13:39:47;;;;;;;3.58;3.17;;;23.30;99.90;;;;;;4882309;29;20495;-88
2022/06/05 13:42:20;;;;;;;4.80;3.38;;;23.40;99.90;;;;;;4864506;29;20037;-88
2022/06/05 13:44:54;;;;;;;3.88;3.28;;;23.40;99.90;;;;;;4866743;29;20091;-88